sensor_id;sensor_type;location;lat;lon;timestamp;pressure;altitude;pressure_sealevel;temperature;humidity
32933;BME280;19444;50.518;10.870;2022-11-27T00:01:50;97787.63;;;1.09;100.00
32933;BME280;19444;50.518;10.870;2022-11-27T00:04:47;97791.97;;;1.04;100.00
32933;BME280;19444;50.518;10.870;2022-11-27T00:07:43;97790.72;;;1.06;100.00
32933;BME280;19444;50.518;10.870;2022-11-27T00:10:40;97784.72;;;1.18;100.00
32933;BME280;19444;50.518;10.870;2022-11-27T00:13:37;97773.53;;;0.97;100.00
32933;BME280;19444;50.518;10.870;2022-11-27T00:16:34;97771.09;;;0.96;100.00
32933;BME280;19444;50.518;10.870;2022-11-27T00:19:31;97765.03;;;0.95;100.00
32933;BME280;19444;50.518;10.870;2022-11-27T00:22:28;97759.59;;;1.15;100.00
32933;BME280;19444;50.518;10.870;2022-11-27T00:25:25;97760.84;;;0.81;100.00
32933;BME280;19444;50.518;10.870;2022-11-27T00:28:22;97756.84;;;0.72;100.00
32933;BME280;19444;50.518;10.870;2022-11-27T00:31:31;97757.06;;;0.70;100.00
32933;BME280;19444;50.518;10.870;2022-11-27T00:34:28;97761.13;;;0.98;100.00
32933;BME280;19444;50.518;10.870;2022-11-27T00:37:25;97766.56;;;0.78;100.00
32933;BME280;19444;50.518;10.870;2022-11-27T00:40:22;97764.16;;;0.76;100.00
32933;BME280;19444;50.518;10.870;2022-11-27T00:43:19;97759.38;;;0.92;100.00
32933;BME280;19444;50.518;10.870;2022-11-27T00:46:21;97760.13;;;0.99;100.00
32933;BME280;19444;50.518;10.870;2022-11-27T00:49:24;97765.59;;;0.72;100.00
32933;BME280;19444;50.518;10.870;2022-11-27T00:52:21;97765.16;;;1.00;100.00
32933;BME280;19444;50.518;10.870;2022-11-27T00:55:18;97777.22;;;0.90;100.00
32933;BME280;19444;50.518;10.870;2022-11-27T00:58:15;97774.25;;;0.79;100.00
32933;BME280;19444;50.518;10.870;2022-11-27T01:01:20;97766.75;;;0.83;100.00
32933;BME280;19444;50.518;10.870;2022-11-27T01:04:17;97775.47;;;0.83;100.00
32933;BME280;19444;50.518;10.870;2022-11-27T01:07:14;97765.66;;;0.91;100.00
32933;BME280;19444;50.518;10.870;2022-11-27T01:10:11;97755.78;;;0.79;100.00
32933;BME280;19444;50.518;10.870;2022-11-27T01:13:08;97756.66;;;0.98;100.00
32933;BME280;19444;50.518;10.870;2022-11-27T01:16:21;97739.13;;;1.10;100.00
32933;BME280;19444;50.518;10.870;2022-11-27T01:19:18;97744.00;;;1.32;100.00
32933;BME280;19444;50.518;10.870;2022-11-27T01:22:15;97741.38;;;1.07;100.00
32933;BME280;19444;50.518;10.870;2022-11-27T01:25:12;97735.94;;;1.02;100.00
32933;BME280;19444;50.518;10.870;2022-11-27T01:28:09;97732.97;;;1.17;100.00
32933;BME280;19444;50.518;10.870;2022-11-27T01:31:16;97742.72;;;0.91;100.00
32933;BME280;19444;50.518;10.870;2022-11-27T01:34:16;97735.88;;;1.08;100.00
32933;BME280;19444;50.518;10.870;2022-11-27T01:37:13;97728.75;;;1.09;100.00
32933;BME280;19444;50.518;10.870;2022-11-27T01:40:11;97728.06;;;0.95;100.00
32933;BME280;19444;50.518;10.870;2022-11-27T01:43:13;97722.66;;;1.08;100.00
32933;BME280;19444;50.518;10.870;2022-11-27T01:46:36;97726.81;;;1.23;100.00
32933;BME280;19444;50.518;10.870;2022-11-27T01:49:45;97727.59;;;1.05;100.00
32933;BME280;19444;50.518;10.870;2022-11-27T01:52:48;97719.97;;;0.90;100.00
32933;BME280;19444;50.518;10.870;2022-11-27T01:55:55;97717.53;;;0.95;100.00
32933;BME280;19444;50.518;10.870;2022-11-27T01:58:56;97721.78;;;0.96;100.00
32933;BME280;19444;50.518;10.870;2022-11-27T02:01:53;97728.63;;;1.04;100.00
32933;BME280;19444;50.518;10.870;2022-11-27T02:04:52;97723.06;;;1.12;100.00
32933;BME280;19444;50.518;10.870;2022-11-27T02:07:50;97715.38;;;1.10;100.00
32933;BME280;19444;50.518;10.870;2022-11-27T02:11:18;97711.84;;;1.17;100.00
32933;BME280;19444;50.518;10.870;2022-11-27T02:18:22;97701.22;;;1.23;100.00
32933;BME280;19444;50.518;10.870;2022-11-27T02:21:53;97710.16;;;1.22;100.00
32933;BME280;19444;50.518;10.870;2022-11-27T02:25:06;97716.75;;;1.13;100.00
32933;BME280;19444;50.518;10.870;2022-11-27T02:32:09;97709.59;;;0.95;100.00
32933;BME280;19444;50.518;10.870;2022-11-27T02:35:27;97706.69;;;1.03;100.00
32933;BME280;19444;50.518;10.870;2022-11-27T02:38:31;97705.59;;;1.11;100.00
32933;BME280;19444;50.518;10.870;2022-11-27T02:41:40;97694.91;;;1.24;100.00
32933;BME280;19444;50.518;10.870;2022-11-27T02:44:49;97695.78;;;1.18;100.00
32933;BME280;19444;50.518;10.870;2022-11-27T02:47:47;97690.72;;;1.35;100.00
32933;BME280;19444;50.518;10.870;2022-11-27T02:50:47;97694.63;;;1.32;100.00
32933;BME280;19444;50.518;10.870;2022-11-27T02:53:56;97697.03;;;1.16;100.00
32933;BME280;19444;50.518;10.870;2022-11-27T02:56:57;97686.97;;;1.06;100.00
32933;BME280;19444;50.518;10.870;2022-11-27T02:59:57;97690.56;;;1.11;100.00
32933;BME280;19444;50.518;10.870;2022-11-27T03:02:59;97680.81;;;1.12;100.00
32933;BME280;19444;50.518;10.870;2022-11-27T03:06:07;97682.78;;;1.17;100.00
32933;BME280;19444;50.518;10.870;2022-11-27T03:09:19;97685.88;;;1.13;100.00
32933;BME280;19444;50.518;10.870;2022-11-27T03:12:19;97679.22;;;1.11;100.00
32933;BME280;19444;50.518;10.870;2022-11-27T03:15:16;97680.47;;;1.27;100.00
32933;BME280;19444;50.518;10.870;2022-11-27T03:18:26;97679.28;;;1.23;100.00
32933;BME280;19444;50.518;10.870;2022-11-27T03:21:39;97670.34;;;1.42;100.00
32933;BME280;19444;50.518;10.870;2022-11-27T03:24:36;97665.22;;;1.10;100.00
32933;BME280;19444;50.518;10.870;2022-11-27T03:27:47;97665.34;;;1.16;100.00
32933;BME280;19444;50.518;10.870;2022-11-27T03:30:46;97658.66;;;1.13;100.00
32933;BME280;19444;50.518;10.870;2022-11-27T03:33:43;97651.56;;;1.13;100.00
32933;BME280;19444;50.518;10.870;2022-11-27T03:36:40;97660.94;;;1.09;100.00
32933;BME280;19444;50.518;10.870;2022-11-27T03:39:37;97663.81;;;1.26;100.00
32933;BME280;19444;50.518;10.870;2022-11-27T03:43:07;97659.56;;;1.25;100.00
32933;BME280;19444;50.518;10.870;2022-11-27T03:46:23;97668.50;;;1.24;100.00
32933;BME280;19444;50.518;10.870;2022-11-27T03:53:58;97650.75;;;1.31;100.00
32933;BME280;19444;50.518;10.870;2022-11-27T03:57:22;97649.97;;;1.31;100.00
32933;BME280;19444;50.518;10.870;2022-11-27T04:00:21;97645.69;;;0.93;100.00
32933;BME280;19444;50.518;10.870;2022-11-27T04:03:26;97647.44;;;0.99;100.00
32933;BME280;19444;50.518;10.870;2022-11-27T04:06:23;97637.34;;;1.14;100.00
32933;BME280;19444;50.518;10.870;2022-11-27T04:09:20;97643.94;;;1.24;100.00
32933;BME280;19444;50.518;10.870;2022-11-27T04:12:17;97648.56;;;1.10;100.00
32933;BME280;19444;50.518;10.870;2022-11-27T04:15:13;97646.06;;;1.15;100.00
32933;BME280;19444;50.518;10.870;2022-11-27T04:18:10;97651.75;;;0.94;100.00
32933;BME280;19444;50.518;10.870;2022-11-27T04:21:07;97650.81;;;1.06;100.00
32933;BME280;19444;50.518;10.870;2022-11-27T04:24:04;97643.41;;;1.15;100.00
32933;BME280;19444;50.518;10.870;2022-11-27T04:27:01;97641.28;;;1.05;100.00
32933;BME280;19444;50.518;10.870;2022-11-27T04:29:58;97659.03;;;1.17;100.00
32933;BME280;19444;50.518;10.870;2022-11-27T04:32:55;97652.81;;;1.11;100.00
32933;BME280;19444;50.518;10.870;2022-11-27T04:35:52;97661.91;;;0.90;100.00
32933;BME280;19444;50.518;10.870;2022-11-27T04:38:49;97656.22;;;0.93;100.00
32933;BME280;19444;50.518;10.870;2022-11-27T04:41:46;97658.88;;;0.93;100.00
32933;BME280;19444;50.518;10.870;2022-11-27T04:44:43;97651.44;;;0.83;100.00
32933;BME280;19444;50.518;10.870;2022-11-27T04:47:40;97651.31;;;0.97;100.00
32933;BME280;19444;50.518;10.870;2022-11-27T04:50:37;97652.19;;;0.91;100.00
32933;BME280;19444;50.518;10.870;2022-11-27T04:53:34;97653.91;;;0.78;100.00
32933;BME280;19444;50.518;10.870;2022-11-27T04:56:31;97654.72;;;0.79;100.00
32933;BME280;19444;50.518;10.870;2022-11-27T04:59:28;97648.38;;;0.87;100.00
32933;BME280;19444;50.518;10.870;2022-11-27T05:02:25;97649.88;;;1.19;100.00
32933;BME280;19444;50.518;10.870;2022-11-27T05:05:22;97639.16;;;1.14;100.00
32933;BME280;19444;50.518;10.870;2022-11-27T05:08:19;97655.31;;;1.24;100.00
32933;BME280;19444;50.518;10.870;2022-11-27T05:11:16;97650.75;;;1.13;100.00
32933;BME280;19444;50.518;10.870;2022-11-27T05:14:13;97654.25;;;1.07;100.00
32933;BME280;19444;50.518;10.870;2022-11-27T05:17:14;97645.75;;;1.05;100.00
32933;BME280;19444;50.518;10.870;2022-11-27T05:20:11;97648.41;;;1.23;100.00
32933;BME280;19444;50.518;10.870;2022-11-27T05:23:07;97650.81;;;1.25;100.00
32933;BME280;19444;50.518;10.870;2022-11-27T05:26:04;97640.03;;;1.08;100.00
32933;BME280;19444;50.518;10.870;2022-11-27T05:29:02;97640.66;;;1.10;100.00
32933;BME280;19444;50.518;10.870;2022-11-27T05:31:59;97643.06;;;1.11;100.00
32933;BME280;19444;50.518;10.870;2022-11-27T05:34:56;97642.38;;;1.16;100.00
32933;BME280;19444;50.518;10.870;2022-11-27T05:37:53;97635.28;;;1.17;100.00
32933;BME280;19444;50.518;10.870;2022-11-27T05:40:49;97639.09;;;1.02;100.00
32933;BME280;19444;50.518;10.870;2022-11-27T05:43:47;97628.31;;;1.04;100.00
32933;BME280;19444;50.518;10.870;2022-11-27T05:46:44;97633.94;;;1.07;100.00
32933;BME280;19444;50.518;10.870;2022-11-27T05:49:41;97640.03;;;1.08;100.00
32933;BME280;19444;50.518;10.870;2022-11-27T05:52:38;97641.59;;;1.16;100.00
32933;BME280;19444;50.518;10.870;2022-11-27T05:55:35;97640.31;;;1.00;100.00
32933;BME280;19444;50.518;10.870;2022-11-27T05:58:33;97644.72;;;1.06;100.00
32933;BME280;19444;50.518;10.870;2022-11-27T06:01:30;97629.97;;;0.98;100.00
32933;BME280;19444;50.518;10.870;2022-11-27T06:04:27;97628.16;;;1.17;100.00
32933;BME280;19444;50.518;10.870;2022-11-27T06:07:24;97625.59;;;1.10;100.00
32933;BME280;19444;50.518;10.870;2022-11-27T06:10:21;97622.44;;;1.02;100.00
32933;BME280;19444;50.518;10.870;2022-11-27T06:13:18;97611.06;;;0.83;100.00
32933;BME280;19444;50.518;10.870;2022-11-27T06:16:19;97606.78;;;0.82;100.00
32933;BME280;19444;50.518;10.870;2022-11-27T06:19:16;97612.06;;;0.82;100.00
32933;BME280;19444;50.518;10.870;2022-11-27T06:22:13;97604.84;;;1.14;100.00
32933;BME280;19444;50.518;10.870;2022-11-27T06:25:10;97597.28;;;1.18;100.00
32933;BME280;19444;50.518;10.870;2022-11-27T06:28:07;97601.25;;;1.08;100.00
32933;BME280;19444;50.518;10.870;2022-11-27T06:31:09;97600.66;;;0.88;100.00
32933;BME280;19444;50.518;10.870;2022-11-27T06:34:13;97599.28;;;1.04;100.00
32933;BME280;19444;50.518;10.870;2022-11-27T06:37:10;97589.34;;;0.99;100.00
32933;BME280;19444;50.518;10.870;2022-11-27T06:40:09;97589.81;;;1.14;100.00
32933;BME280;19444;50.518;10.870;2022-11-27T06:43:06;97580.28;;;1.32;100.00
32933;BME280;19444;50.518;10.870;2022-11-27T06:46:06;97586.38;;;0.96;100.00
32933;BME280;19444;50.518;10.870;2022-11-27T06:49:03;97583.16;;;0.94;100.00
32933;BME280;19444;50.518;10.870;2022-11-27T06:52:00;97573.53;;;0.99;100.00
32933;BME280;19444;50.518;10.870;2022-11-27T06:54:57;97576.69;;;0.90;100.00
32933;BME280;19444;50.518;10.870;2022-11-27T06:57:54;97576.38;;;1.16;100.00
32933;BME280;19444;50.518;10.870;2022-11-27T07:01:00;97580.22;;;1.02;100.00
32933;BME280;19444;50.518;10.870;2022-11-27T07:03:57;97570.06;;;0.80;100.00
32933;BME280;19444;50.518;10.870;2022-11-27T07:06:54;97575.72;;;0.84;100.00
32933;BME280;19444;50.518;10.870;2022-11-27T07:09:51;97570.22;;;0.85;100.00
32933;BME280;19444;50.518;10.870;2022-11-27T07:12:48;97560.63;;;0.91;100.00
32933;BME280;19444;50.518;10.870;2022-11-27T07:15:45;97566.06;;;0.96;100.00
32933;BME280;19444;50.518;10.870;2022-11-27T07:18:49;97560.84;;;0.90;100.00
32933;BME280;19444;50.518;10.870;2022-11-27T07:21:46;97556.88;;;0.80;100.00
32933;BME280;19444;50.518;10.870;2022-11-27T07:24:43;97557.97;;;0.91;100.00
32933;BME280;19444;50.518;10.870;2022-11-27T07:27:40;97561.22;;;0.75;100.00
32933;BME280;19444;50.518;10.870;2022-11-27T07:30:37;97561.50;;;0.85;100.00
32933;BME280;19444;50.518;10.870;2022-11-27T07:33:34;97557.56;;;1.12;100.00
32933;BME280;19444;50.518;10.870;2022-11-27T07:36:30;97562.09;;;0.87;100.00
32933;BME280;19444;50.518;10.870;2022-11-27T07:39:27;97554.19;;;0.87;100.00
32933;BME280;19444;50.518;10.870;2022-11-27T07:42:44;97553.94;;;0.89;100.00
32933;BME280;19444;50.518;10.870;2022-11-27T07:45:41;97557.41;;;0.89;100.00
32933;BME280;19444;50.518;10.870;2022-11-27T07:48:38;97553.03;;;1.01;100.00
32933;BME280;19444;50.518;10.870;2022-11-27T07:51:35;97549.78;;;0.99;100.00
32933;BME280;19444;50.518;10.870;2022-11-27T07:54:32;97545.47;;;0.87;100.00
32933;BME280;19444;50.518;10.870;2022-11-27T07:57:30;97546.19;;;0.94;100.00
32933;BME280;19444;50.518;10.870;2022-11-27T08:00:27;97547.00;;;0.94;100.00
32933;BME280;19444;50.518;10.870;2022-11-27T08:03:24;97542.13;;;1.28;100.00
32933;BME280;19444;50.518;10.870;2022-11-27T08:06:24;97542.22;;;1.03;100.00
32933;BME280;19444;50.518;10.870;2022-11-27T08:09:21;97529.03;;;1.21;100.00
32933;BME280;19444;50.518;10.870;2022-11-27T08:12:18;97536.84;;;1.09;100.00
32933;BME280;19444;50.518;10.870;2022-11-27T08:15:15;97538.31;;;1.24;100.00
32933;BME280;19444;50.518;10.870;2022-11-27T08:18:12;97532.03;;;1.06;100.00
32933;BME280;19444;50.518;10.870;2022-11-27T08:21:09;97531.44;;;1.23;100.00
32933;BME280;19444;50.518;10.870;2022-11-27T08:24:07;97524.31;;;1.23;100.00
32933;BME280;19444;50.518;10.870;2022-11-27T08:27:05;97530.13;;;1.13;100.00
32933;BME280;19444;50.518;10.870;2022-11-27T08:30:03;97526.69;;;1.13;100.00
32933;BME280;19444;50.518;10.870;2022-11-27T08:33:01;97526.47;;;1.45;100.00
32933;BME280;19444;50.518;10.870;2022-11-27T08:35:58;97528.41;;;1.37;100.00
32933;BME280;19444;50.518;10.870;2022-11-27T08:38:55;97529.59;;;1.53;100.00
32933;BME280;19444;50.518;10.870;2022-11-27T08:41:53;97525.22;;;1.47;100.00
32933;BME280;19444;50.518;10.870;2022-11-27T08:44:50;97520.31;;;1.62;100.00
32933;BME280;19444;50.518;10.870;2022-11-27T08:47:47;97517.75;;;1.74;100.00
32933;BME280;19444;50.518;10.870;2022-11-27T08:50:44;97524.56;;;1.63;100.00
32933;BME280;19444;50.518;10.870;2022-11-27T08:53:41;97521.50;;;1.66;100.00
32933;BME280;19444;50.518;10.870;2022-11-27T08:56:41;97523.13;;;1.79;100.00
32933;BME280;19444;50.518;10.870;2022-11-27T08:59:38;97515.28;;;2.03;100.00
32933;BME280;19444;50.518;10.870;2022-11-27T09:02:35;97512.00;;;1.89;100.00
32933;BME280;19444;50.518;10.870;2022-11-27T09:05:32;97521.84;;;2.12;100.00
32933;BME280;19444;50.518;10.870;2022-11-27T09:08:29;97522.75;;;2.17;100.00
32933;BME280;19444;50.518;10.870;2022-11-27T09:11:27;97518.25;;;2.18;100.00
32933;BME280;19444;50.518;10.870;2022-11-27T09:14:25;97525.16;;;2.07;100.00
32933;BME280;19444;50.518;10.870;2022-11-27T09:17:22;97526.97;;;1.83;100.00
32933;BME280;19444;50.518;10.870;2022-11-27T09:20:19;97531.81;;;2.10;100.00
32933;BME280;19444;50.518;10.870;2022-11-27T09:23:16;97521.84;;;2.12;100.00
32933;BME280;19444;50.518;10.870;2022-11-27T09:26:15;97519.56;;;2.39;100.00
32933;BME280;19444;50.518;10.870;2022-11-27T09:29:12;97521.72;;;2.18;100.00
32933;BME280;19444;50.518;10.870;2022-11-27T09:32:09;97521.63;;;2.48;100.00
32933;BME280;19444;50.518;10.870;2022-11-27T09:35:07;97516.66;;;2.52;100.00
32933;BME280;19444;50.518;10.870;2022-11-27T09:38:04;97516.66;;;2.75;100.00
32933;BME280;19444;50.518;10.870;2022-11-27T09:41:44;97519.59;;;2.91;100.00
32933;BME280;19444;50.518;10.870;2022-11-27T09:44:46;97505.00;;;2.88;100.00
32933;BME280;19444;50.518;10.870;2022-11-27T09:48:01;97496.59;;;3.31;100.00
32933;BME280;19444;50.518;10.870;2022-11-27T09:51:04;97492.03;;;3.43;100.00
32933;BME280;19444;50.518;10.870;2022-11-27T09:57:30;97492.72;;;3.22;100.00
32933;BME280;19444;50.518;10.870;2022-11-27T10:00:28;97482.97;;;3.39;100.00
32933;BME280;19444;50.518;10.870;2022-11-27T10:03:26;97486.06;;;3.36;100.00
32933;BME280;19444;50.518;10.870;2022-11-27T10:07:11;97470.22;;;3.53;100.00
32933;BME280;19444;50.518;10.870;2022-11-27T10:10:35;97477.28;;;3.19;100.00
32933;BME280;19444;50.518;10.870;2022-11-27T10:13:49;97477.28;;;3.19;100.00
32933;BME280;19444;50.518;10.870;2022-11-27T10:20:36;97454.50;;;3.63;100.00
32933;BME280;19444;50.518;10.870;2022-11-27T10:24:01;97443.66;;;3.82;100.00
32933;BME280;19444;50.518;10.870;2022-11-27T10:27:20;97432.81;;;3.83;100.00
32933;BME280;19444;50.518;10.870;2022-11-27T10:30:20;97414.09;;;3.90;100.00
32933;BME280;19444;50.518;10.870;2022-11-27T10:33:23;97418.09;;;4.09;100.00
32933;BME280;19444;50.518;10.870;2022-11-27T10:36:40;97411.94;;;4.04;100.00
32933;BME280;19444;50.518;10.870;2022-11-27T10:39:45;97393.53;;;3.97;100.00
32933;BME280;19444;50.518;10.870;2022-11-27T10:46:36;97389.41;;;4.06;100.00
32933;BME280;19444;50.518;10.870;2022-11-27T10:49:39;97393.41;;;4.09;100.00
32933;BME280;19444;50.518;10.870;2022-11-27T10:53:04;97393.41;;;4.09;100.00
32933;BME280;19444;50.518;10.870;2022-11-27T10:59:22;97392.06;;;4.45;100.00
32933;BME280;19444;50.518;10.870;2022-11-27T11:02:33;97391.38;;;4.54;100.00
32933;BME280;19444;50.518;10.870;2022-11-27T11:05:32;97378.53;;;4.46;100.00
32933;BME280;19444;50.518;10.870;2022-11-27T11:09:14;97379.66;;;4.50;100.00
32933;BME280;19444;50.518;10.870;2022-11-27T11:12:20;97370.81;;;4.45;100.00
32933;BME280;19444;50.518;10.870;2022-11-27T11:15:17;97369.28;;;4.49;100.00
32933;BME280;19444;50.518;10.870;2022-11-27T11:18:27;97368.25;;;4.50;100.00
32933;BME280;19444;50.518;10.870;2022-11-27T11:21:34;97355.63;;;4.62;100.00
32933;BME280;19444;50.518;10.870;2022-11-27T11:24:36;97357.56;;;4.67;100.00
32933;BME280;19444;50.518;10.870;2022-11-27T11:27:36;97356.19;;;4.86;100.00
32933;BME280;19444;50.518;10.870;2022-11-27T11:30:38;97352.63;;;4.53;100.00
32933;BME280;19444;50.518;10.870;2022-11-27T11:33:54;97348.75;;;4.88;100.00
32933;BME280;19444;50.518;10.870;2022-11-27T11:37:26;97353.97;;;4.78;100.00
32933;BME280;19444;50.518;10.870;2022-11-27T11:40:33;97352.25;;;4.67;100.00
32933;BME280;19444;50.518;10.870;2022-11-27T11:43:34;97355.28;;;4.53;100.00
32933;BME280;19444;50.518;10.870;2022-11-27T11:46:32;97362.13;;;4.71;100.00
32933;BME280;19444;50.518;10.870;2022-11-27T11:49:33;97357.00;;;4.65;100.00
32933;BME280;19444;50.518;10.870;2022-11-27T12:15:54;97325.16;;;4.43;100.00
32933;BME280;19444;50.518;10.870;2022-11-27T12:22:47;97296.31;;;4.51;100.00
32933;BME280;19444;50.518;10.870;2022-11-27T12:29:35;97291.06;;;4.56;100.00
32933;BME280;19444;50.518;10.870;2022-11-27T12:33:24;97283.97;;;4.89;100.00
32933;BME280;19444;50.518;10.870;2022-11-27T12:49:47;97256.69;;;4.67;100.00
32933;BME280;19444;50.518;10.870;2022-11-27T12:53:15;97265.38;;;4.62;100.00
32933;BME280;19444;50.518;10.870;2022-11-27T12:56:30;97259.56;;;4.65;100.00
32933;BME280;19444;50.518;10.870;2022-11-27T12:59:54;97251.50;;;4.55;100.00
32933;BME280;19444;50.518;10.870;2022-11-27T13:07:05;97244.72;;;4.96;100.00
32933;BME280;19444;50.518;10.870;2022-11-27T13:10:40;97235.44;;;4.67;100.00
32933;BME280;19444;50.518;10.870;2022-11-27T13:13:47;97231.50;;;4.47;100.00
32933;BME280;19444;50.518;10.870;2022-11-27T13:16:51;97227.19;;;4.14;100.00
32933;BME280;19444;50.518;10.870;2022-11-27T13:19:50;97222.47;;;4.43;100.00
32933;BME280;19444;50.518;10.870;2022-11-27T13:22:47;97228.84;;;4.74;100.00
32933;BME280;19444;50.518;10.870;2022-11-27T13:25:50;97222.19;;;4.45;100.00
32933;BME280;19444;50.518;10.870;2022-11-27T13:28:54;97209.13;;;4.38;100.00
32933;BME280;19444;50.518;10.870;2022-11-27T13:31:56;97205.03;;;4.52;100.00
32933;BME280;19444;50.518;10.870;2022-11-27T13:35:00;97209.38;;;4.37;100.00
32933;BME280;19444;50.518;10.870;2022-11-27T13:38:14;97211.22;;;4.36;100.00
32933;BME280;19444;50.518;10.870;2022-11-27T13:41:41;97195.03;;;4.60;100.00
32933;BME280;19444;50.518;10.870;2022-11-27T13:44:42;97202.78;;;4.12;100.00
32933;BME280;19444;50.518;10.870;2022-11-27T13:47:42;97202.78;;;4.39;100.00
32933;BME280;19444;50.518;10.870;2022-11-27T13:50:44;97198.06;;;4.19;100.00
32933;BME280;19444;50.518;10.870;2022-11-27T13:53:41;97188.03;;;4.48;100.00
32933;BME280;19444;50.518;10.870;2022-11-27T13:56:39;97187.22;;;4.21;100.00
32933;BME280;19444;50.518;10.870;2022-11-27T13:59:36;97185.44;;;4.05;100.00
32933;BME280;19444;50.518;10.870;2022-11-27T14:02:53;97173.63;;;4.17;100.00
32933;BME280;19444;50.518;10.870;2022-11-27T14:05:50;97181.56;;;3.90;100.00
32933;BME280;19444;50.518;10.870;2022-11-27T14:08:59;97186.28;;;4.10;100.00
32933;BME280;19444;50.518;10.870;2022-11-27T14:11:57;97200.81;;;3.81;100.00
32933;BME280;19444;50.518;10.870;2022-11-27T14:18:16;97182.06;;;3.65;100.00
32933;BME280;19444;50.518;10.870;2022-11-27T14:24:41;97179.59;;;3.59;100.00
32933;BME280;19444;50.518;10.870;2022-11-27T14:27:42;97180.34;;;3.37;100.00
32933;BME280;19444;50.518;10.870;2022-11-27T14:30:50;97171.56;;;3.32;100.00
32933;BME280;19444;50.518;10.870;2022-11-27T14:33:48;97170.75;;;3.31;100.00
32933;BME280;19444;50.518;10.870;2022-11-27T14:37:05;97171.81;;;3.30;100.00
32933;BME280;19444;50.518;10.870;2022-11-27T14:40:13;97160.13;;;3.48;100.00
32933;BME280;19444;50.518;10.870;2022-11-27T14:43:16;97161.13;;;3.25;100.00
32933;BME280;19444;50.518;10.870;2022-11-27T14:46:19;97160.84;;;3.22;100.00
32933;BME280;19444;50.518;10.870;2022-11-27T14:49:19;97157.38;;;3.21;100.00
32933;BME280;19444;50.518;10.870;2022-11-27T14:52:17;97155.69;;;3.15;100.00
32933;BME280;19444;50.518;10.870;2022-11-27T14:55:15;97154.03;;;2.92;100.00
32933;BME280;19444;50.518;10.870;2022-11-27T14:58:19;97160.16;;;2.93;100.00
32933;BME280;19444;50.518;10.870;2022-11-27T15:01:31;97149.56;;;2.93;100.00
32933;BME280;19444;50.518;10.870;2022-11-27T15:04:36;97141.69;;;2.98;100.00
32933;BME280;19444;50.518;10.870;2022-11-27T15:07:35;97131.34;;;2.79;100.00
32933;BME280;19444;50.518;10.870;2022-11-27T15:10:44;97129.91;;;2.72;100.00
32933;BME280;19444;50.518;10.870;2022-11-27T15:13:41;97128.16;;;2.61;100.00
32933;BME280;19444;50.518;10.870;2022-11-27T15:16:44;97137.78;;;2.50;100.00
32933;BME280;19444;50.518;10.870;2022-11-27T15:19:42;97126.13;;;2.34;100.00
32933;BME280;19444;50.518;10.870;2022-11-27T15:22:50;97129.94;;;2.38;100.00
32933;BME280;19444;50.518;10.870;2022-11-27T15:29:35;97121.09;;;2.33;100.00
32933;BME280;19444;50.518;10.870;2022-11-27T15:32:46;97112.03;;;2.28;100.00
32933;BME280;19444;50.518;10.870;2022-11-27T15:35:47;97109.94;;;2.14;100.00
32933;BME280;19444;50.518;10.870;2022-11-27T15:38:50;97102.19;;;2.41;100.00
32933;BME280;19444;50.518;10.870;2022-11-27T15:42:02;97100.31;;;2.08;100.00
32933;BME280;19444;50.518;10.870;2022-11-27T15:44:59;97085.63;;;2.00;100.00
32933;BME280;19444;50.518;10.870;2022-11-27T15:47:59;97085.88;;;1.98;100.00
32933;BME280;19444;50.518;10.870;2022-11-27T15:50:56;97079.31;;;2.01;100.00
32933;BME280;19444;50.518;10.870;2022-11-27T15:53:53;97075.97;;;2.06;100.00
32933;BME280;19444;50.518;10.870;2022-11-27T15:56:50;97067.28;;;2.10;100.00
32933;BME280;19444;50.518;10.870;2022-11-27T15:59:47;97061.53;;;2.13;100.00
32933;BME280;19444;50.518;10.870;2022-11-27T16:02:44;97057.06;;;2.31;100.00
32933;BME280;19444;50.518;10.870;2022-11-27T16:05:41;97057.75;;;1.76;100.00
32933;BME280;19444;50.518;10.870;2022-11-27T16:08:38;97043.34;;;1.55;100.00
32933;BME280;19444;50.518;10.870;2022-11-27T16:11:35;97037.81;;;1.85;100.00
32933;BME280;19444;50.518;10.870;2022-11-27T16:14:32;97027.72;;;2.32;100.00
32933;BME280;19444;50.518;10.870;2022-11-27T16:17:29;97021.41;;;2.16;100.00
32933;BME280;19444;50.518;10.870;2022-11-27T16:20:26;97014.13;;;2.07;100.00
32933;BME280;19444;50.518;10.870;2022-11-27T16:23:23;97006.44;;;2.05;100.00
32933;BME280;19444;50.518;10.870;2022-11-27T16:26:20;97011.16;;;2.03;100.00
32933;BME280;19444;50.518;10.870;2022-11-27T16:29:17;97004.97;;;1.81;100.00
32933;BME280;19444;50.518;10.870;2022-11-27T16:32:14;97009.47;;;1.97;100.00
32933;BME280;19444;50.518;10.870;2022-11-27T16:35:11;97014.19;;;1.78;100.00
32933;BME280;19444;50.518;10.870;2022-11-27T16:38:08;97015.78;;;1.79;100.00
32933;BME280;19444;50.518;10.870;2022-11-27T16:41:08;97014.72;;;1.80;100.00
32933;BME280;19444;50.518;10.870;2022-11-27T16:44:11;97028.28;;;1.55;100.00
32933;BME280;19444;50.518;10.870;2022-11-27T16:47:08;97032.28;;;1.41;100.00
32933;BME280;19444;50.518;10.870;2022-11-27T16:50:06;97029.63;;;1.41;100.00
32933;BME280;19444;50.518;10.870;2022-11-27T16:53:03;97032.97;;;1.65;100.00
32933;BME280;19444;50.518;10.870;2022-11-27T16:56:00;97028.09;;;1.74;100.00
32933;BME280;19444;50.518;10.870;2022-11-27T16:58:58;97037.03;;;1.56;100.00
32933;BME280;19444;50.518;10.870;2022-11-27T17:02:00;97034.28;;;1.51;100.00
32933;BME280;19444;50.518;10.870;2022-11-27T17:04:58;97022.34;;;1.77;100.00
32933;BME280;19444;50.518;10.870;2022-11-27T17:07:55;97018.88;;;1.59;100.00
32933;BME280;19444;50.518;10.870;2022-11-27T17:10:52;97014.00;;;1.68;100.00
32933;BME280;19444;50.518;10.870;2022-11-27T17:13:51;97007.75;;;1.57;100.00
32933;BME280;19444;50.518;10.870;2022-11-27T17:16:49;97004.06;;;1.58;100.00